createdAt,value
2022-12-31T00:02:39.491Z,3.95
2022-12-31T00:05:41.226Z,4.15
2022-12-31T00:08:43.903Z,2.95
2022-12-31T00:11:45.632Z,4.47
2022-12-31T00:14:47.264Z,4.55
2022-12-31T00:17:48.841Z,4.25
2022-12-31T00:20:50.454Z,3.10
2022-12-31T00:23:52.985Z,3.28
2022-12-31T00:26:54.630Z,3.20
2022-12-31T00:29:59.526Z,3.00
2022-12-31T00:33:05.772Z,3.85
2022-12-31T00:36:19.190Z,4.35
2022-12-31T00:39:20.785Z,4.28
2022-12-31T00:42:22.375Z,4.43
2022-12-31T00:45:23.954Z,5.00
2022-12-31T00:48:26.021Z,7.05
2022-12-31T00:51:27.928Z,3.97
2022-12-31T00:54:29.550Z,5.10
2022-12-31T00:57:31.180Z,4.20
2022-12-31T01:00:32.784Z,4.28
2022-12-31T01:03:34.363Z,4.65
2022-12-31T01:06:36.315Z,3.22
2022-12-31T01:09:37.909Z,2.47
2022-12-31T01:12:39.391Z,4.28
2022-12-31T01:15:40.955Z,3.75
2022-12-31T01:18:42.484Z,4.22
2022-12-31T01:21:45.414Z,4.45
2022-12-31T01:24:46.941Z,3.47
2022-12-31T01:27:48.419Z,4.72
2022-12-31T01:30:49.866Z,2.97
2022-12-31T01:33:52.008Z,6.30
2022-12-31T01:36:53.494Z,2.78
2022-12-31T01:39:54.948Z,3.20
2022-12-31T01:42:58.736Z,3.10
2022-12-31T01:46:00.474Z,3.50
2022-12-31T01:49:09.787Z,3.10
2022-12-31T01:52:18.430Z,2.42
2022-12-31T01:55:26.027Z,3.22
2022-12-31T01:58:49.534Z,3.13
2022-12-31T02:01:54.301Z,3.42
2022-12-31T02:04:59.188Z,4.45
2022-12-31T02:08:00.693Z,8.10
2022-12-31T02:11:02.291Z,2.30
2022-12-31T02:14:09.468Z,2.88
2022-12-31T02:17:44.407Z,4.00
2022-12-31T02:20:56.635Z,3.42
2022-12-31T02:27:33.712Z,2.53
2022-12-31T02:30:37.261Z,3.03
2022-12-31T02:33:57.857Z,3.13
2022-12-31T02:37:03.444Z,2.40
2022-12-31T02:40:08.468Z,5.80
2022-12-31T02:43:09.989Z,3.25
2022-12-31T02:46:21.572Z,2.33
2022-12-31T02:49:32.874Z,3.80
2022-12-31T02:52:43.190Z,3.83
2022-12-31T02:56:03.621Z,4.65
2022-12-31T02:59:52.680Z,4.90
2022-12-31T03:02:55.781Z,6.72
2022-12-31T03:05:58.410Z,3.92
2022-12-31T03:09:14.716Z,5.07
2022-12-31T03:12:36.309Z,6.45
2022-12-31T03:15:38.889Z,7.53
2022-12-31T03:19:00.643Z,8.88
2022-12-31T03:22:20.474Z,7.25
2022-12-31T03:25:54.404Z,6.13
2022-12-31T03:28:55.965Z,6.03
2022-12-31T03:31:57.455Z,7.05
2022-12-31T03:34:58.876Z,6.43
2022-12-31T03:38:00.815Z,8.17
2022-12-31T03:41:02.962Z,6.80
2022-12-31T03:44:04.488Z,7.55
2022-12-31T03:47:05.962Z,7.70
2022-12-31T03:50:09.569Z,7.90
2022-12-31T03:53:11.366Z,6.18
2022-12-31T03:56:12.886Z,4.82
2022-12-31T03:59:14.310Z,5.13
2022-12-31T04:02:16.175Z,5.63
2022-12-31T04:05:19.315Z,4.50
2022-12-31T04:08:20.904Z,5.30
2022-12-31T04:11:22.388Z,5.82
2022-12-31T04:14:23.905Z,5.82
2022-12-31T04:17:26.108Z,4.32
2022-12-31T04:23:29.013Z,7.35
2022-12-31T04:26:32.224Z,4.80
2022-12-31T04:29:33.915Z,6.40
2022-12-31T04:32:35.428Z,5.55
2022-12-31T04:35:36.931Z,7.93
2022-12-31T04:38:38.427Z,4.75
2022-12-31T04:41:39.915Z,5.22
2022-12-31T04:44:41.430Z,6.13
2022-12-31T04:47:43.044Z,4.65
2022-12-31T04:50:46.233Z,4.72
2022-12-31T04:53:48.512Z,7.00
2022-12-31T04:56:50.020Z,5.25
2022-12-31T04:59:51.529Z,4.43
2022-12-31T05:02:53.030Z,4.07
2022-12-31T05:06:00.220Z,4.78
2022-12-31T05:09:01.705Z,3.40
2022-12-31T05:12:03.250Z,5.85
2022-12-31T05:15:05.160Z,5.20
2022-12-31T05:18:07.688Z,4.45
2022-12-31T05:21:15.380Z,4.68
2022-12-31T05:24:16.846Z,7.47
2022-12-31T05:27:18.445Z,3.67
2022-12-31T05:30:20.015Z,4.05
2022-12-31T05:33:22.929Z,6.32
2022-12-31T05:36:24.401Z,4.93
2022-12-31T05:39:25.897Z,4.43
2022-12-31T05:42:27.503Z,5.20
2022-12-31T05:45:31.191Z,4.55
2022-12-31T05:48:33.226Z,2.67
2022-12-31T05:51:34.711Z,3.20
2022-12-31T05:54:36.567Z,4.15
2022-12-31T05:57:38.324Z,3.28
2022-12-31T06:00:42.788Z,2.38
2022-12-31T06:03:44.385Z,5.80
2022-12-31T06:06:45.894Z,3.58
2022-12-31T06:09:47.319Z,5.10
2022-12-31T06:12:48.781Z,4.70
2022-12-31T06:15:50.295Z,2.97
2022-12-31T06:18:51.782Z,3.67
2022-12-31T06:21:53.227Z,4.63
2022-12-31T06:24:54.657Z,3.60
2022-12-31T06:27:56.141Z,4.05
2022-12-31T06:31:01.974Z,4.93
2022-12-31T06:34:03.939Z,4.15
2022-12-31T06:37:05.427Z,4.00
2022-12-31T06:40:07.580Z,3.47
2022-12-31T06:43:09.142Z,3.50
2022-12-31T06:46:12.987Z,3.45
2022-12-31T06:49:14.585Z,3.65
2022-12-31T06:52:16.051Z,3.08
2022-12-31T06:55:17.751Z,3.60
2022-12-31T06:58:19.398Z,3.78
2022-12-31T07:01:46.672Z,7.75
2022-12-31T07:05:07.520Z,2.83
2022-12-31T07:08:29.714Z,5.15
2022-12-31T07:11:37.345Z,3.40
2022-12-31T07:14:51.597Z,4.38
2022-12-31T07:18:05.832Z,3.30
2022-12-31T07:21:16.638Z,3.30
2022-12-31T07:24:18.437Z,2.63
2022-12-31T07:28:20.644Z,2.83
2022-12-31T07:31:47.005Z,3.35
2022-12-31T07:35:03.365Z,3.60
2022-12-31T07:38:24.004Z,4.93
2022-12-31T07:41:40.466Z,3.10
2022-12-31T07:44:58.945Z,3.65
2022-12-31T07:48:02.658Z,4.18
2022-12-31T07:51:04.927Z,6.38
2022-12-31T07:54:11.853Z,2.72
2022-12-31T07:57:18.053Z,3.35
2022-12-31T08:00:19.937Z,3.47
2022-12-31T08:03:47.246Z,3.75
2022-12-31T08:06:58.229Z,8.10
2022-12-31T08:10:18.974Z,6.30
2022-12-31T08:13:21.068Z,4.70
2022-12-31T08:16:22.967Z,6.30
2022-12-31T08:19:32.745Z,5.85
2022-12-31T08:22:55.556Z,4.75
2022-12-31T08:26:11.930Z,6.30
2022-12-31T08:29:34.141Z,4.28
2022-12-31T08:32:41.410Z,4.88
2022-12-31T08:35:59.796Z,5.53
2022-12-31T08:39:26.536Z,6.22
2022-12-31T08:42:44.102Z,6.47
2022-12-31T08:45:51.165Z,5.32
2022-12-31T08:48:52.716Z,5.85
2022-12-31T08:51:54.559Z,4.05
2022-12-31T08:54:56.254Z,6.22
2022-12-31T08:58:26.664Z,6.18
2022-12-31T09:01:42.454Z,5.47
2022-12-31T09:05:14.311Z,6.47
2022-12-31T09:08:24.740Z,5.60
2022-12-31T09:11:52.507Z,5.80
2022-12-31T09:14:58.224Z,5.32
2022-12-31T09:17:59.918Z,9.85
2022-12-31T09:21:01.489Z,5.85
2022-12-31T09:24:09.204Z,5.38
2022-12-31T09:27:37.927Z,4.70
2022-12-31T09:30:54.546Z,6.35
2022-12-31T09:34:06.688Z,6.35
2022-12-31T09:37:18.331Z,5.38
2022-12-31T09:40:28.830Z,5.38
2022-12-31T09:43:50.017Z,4.53
2022-12-31T09:47:15.058Z,3.88
2022-12-31T09:50:48.712Z,3.75
2022-12-31T09:53:55.296Z,4.75
2022-12-31T09:57:20.696Z,4.55
2022-12-31T10:00:55.492Z,4.18
2022-12-31T10:04:15.735Z,4.28
2022-12-31T10:07:35.641Z,3.75
2022-12-31T10:10:54.603Z,3.53
2022-12-31T10:14:34.321Z,4.07
2022-12-31T10:18:03.984Z,4.10
2022-12-31T10:21:38.805Z,3.72
2022-12-31T10:24:49.327Z,3.78
2022-12-31T10:28:30.014Z,3.45
2022-12-31T10:32:17.699Z,3.10
2022-12-31T10:35:31.028Z,2.50
2022-12-31T10:38:39.136Z,3.60
2022-12-31T10:42:02.411Z,2.90
2022-12-31T10:45:22.632Z,4.07
2022-12-31T10:48:53.351Z,4.32
2022-12-31T10:52:26.728Z,2.90
2022-12-31T10:55:57.800Z,6.45
2022-12-31T10:59:37.681Z,3.83
2022-12-31T11:03:11.083Z,3.17
2022-12-31T11:06:50.196Z,2.88
2022-12-31T11:10:16.560Z,2.92
2022-12-31T11:13:35.226Z,6.13
2022-12-31T11:17:03.260Z,3.88
2022-12-31T11:20:29.411Z,10.95
2022-12-31T11:24:06.486Z,13.38
2022-12-31T11:27:20.897Z,5.60
2022-12-31T11:30:29.740Z,3.47
2022-12-31T11:33:56.350Z,6.32
2022-12-31T11:37:35.185Z,4.32
2022-12-31T11:40:43.596Z,3.00
2022-12-31T11:44:14.974Z,4.05
2022-12-31T11:47:26.389Z,5.15
2022-12-31T11:50:50.652Z,4.45
2022-12-31T11:53:57.502Z,4.13
2022-12-31T11:57:01.930Z,4.60
2022-12-31T12:00:09.411Z,3.55
2022-12-31T12:03:13.723Z,3.42
2022-12-31T12:06:24.798Z,3.25
2022-12-31T12:09:32.094Z,3.17
2022-12-31T12:12:41.060Z,4.25
2022-12-31T12:15:49.344Z,3.92
2022-12-31T12:19:04.803Z,4.47
2022-12-31T12:22:12.357Z,3.22
2022-12-31T12:25:20.592Z,3.28
2022-12-31T12:28:24.695Z,4.20
2022-12-31T12:31:27.464Z,4.90
2022-12-31T12:34:30.499Z,3.17
2022-12-31T12:37:35.346Z,3.28
2022-12-31T12:40:36.853Z,3.38
2022-12-31T12:43:38.871Z,3.35
2022-12-31T12:46:48.956Z,2.10
2022-12-31T12:49:54.470Z,3.67
2022-12-31T12:53:02.085Z,2.50
2022-12-31T12:56:18.827Z,2.78
2022-12-31T12:59:38.064Z,3.22
2022-12-31T13:02:57.875Z,4.03
2022-12-31T13:06:17.517Z,5.63
2022-12-31T13:09:49.129Z,3.25
2022-12-31T13:13:27.295Z,2.93
2022-12-31T13:16:38.887Z,3.90
2022-12-31T13:19:52.200Z,2.75
2022-12-31T13:23:10.526Z,3.00
2022-12-31T13:26:44.565Z,7.20
2022-12-31T13:29:47.972Z,2.45
2022-12-31T13:32:56.753Z,3.35
2022-12-31T13:36:19.161Z,3.15
2022-12-31T13:39:25.369Z,3.28
2022-12-31T13:42:43.620Z,4.13
2022-12-31T13:45:59.046Z,3.13
2022-12-31T13:49:05.052Z,3.63
2022-12-31T13:52:27.484Z,3.50
2022-12-31T13:55:46.218Z,3.20
2022-12-31T13:59:17.432Z,1.85
2022-12-31T14:02:37.976Z,3.60
2022-12-31T14:05:49.772Z,2.67
2022-12-31T14:08:53.340Z,3.60
2022-12-31T14:12:19.318Z,3.33
2022-12-31T14:15:35.009Z,2.78
2022-12-31T14:18:53.505Z,4.45
2022-12-31T14:22:12.034Z,2.97
2022-12-31T14:25:28.989Z,2.90
2022-12-31T14:28:41.754Z,2.70
2022-12-31T14:31:48.196Z,2.72
2022-12-31T14:35:00.470Z,3.08
2022-12-31T14:38:36.183Z,3.22
2022-12-31T14:42:00.301Z,2.28
2022-12-31T14:45:20.513Z,3.08
2022-12-31T14:48:40.327Z,2.92
2022-12-31T14:51:41.879Z,3.42
2022-12-31T14:54:43.373Z,2.72
2022-12-31T14:58:26.026Z,4.07
2022-12-31T15:01:22.470Z,3.28
2022-12-31T15:04:34.619Z,2.97
2022-12-31T15:08:22.376Z,5.53
2022-12-31T15:11:42.532Z,4.30
2022-12-31T15:14:55.341Z,4.80
2022-12-31T15:18:21.806Z,4.32
2022-12-31T15:21:44.718Z,3.47
2022-12-31T15:24:47.558Z,3.85
2022-12-31T15:27:49.807Z,3.88
2022-12-31T15:30:52.940Z,4.20
2022-12-31T15:34:03.118Z,4.45
2022-12-31T15:37:06.666Z,3.25
2022-12-31T15:40:21.437Z,4.85
2022-12-31T15:43:35.174Z,4.03
2022-12-31T15:46:40.972Z,3.65
2022-12-31T15:49:46.633Z,5.07
2022-12-31T15:52:56.662Z,4.13
2022-12-31T15:56:00.569Z,3.58
2022-12-31T15:59:04.955Z,3.33
2022-12-31T16:02:19.236Z,4.03
2022-12-31T16:05:24.669Z,4.70
2022-12-31T16:08:30.716Z,3.28
2022-12-31T16:11:36.974Z,5.45
2022-12-31T16:14:42.496Z,6.90
2022-12-31T16:17:45.193Z,5.60
2022-12-31T16:20:48.489Z,10.73
2022-12-31T16:23:52.169Z,29.15
2022-12-31T16:26:56.994Z,18.13
2022-12-31T16:30:16.268Z,18.17
2022-12-31T16:33:19.020Z,14.02
2022-12-31T16:36:23.080Z,10.93
2022-12-31T16:39:34.990Z,11.90
2022-12-31T16:42:44.132Z,11.15
2022-12-31T16:45:46.134Z,9.10
2022-12-31T16:48:53.433Z,6.88
2022-12-31T16:52:24.661Z,9.25
2022-12-31T16:55:28.611Z,6.78
2022-12-31T16:58:33.680Z,7.97
2022-12-31T17:01:37.644Z,6.18
2022-12-31T17:04:45.169Z,6.57
2022-12-31T17:07:50.109Z,6.03
2022-12-31T17:10:51.641Z,6.22
2022-12-31T17:14:17.903Z,6.00
2022-12-31T17:17:33.104Z,5.57
2022-12-31T17:20:34.734Z,8.10
2022-12-31T17:23:39.675Z,9.48
2022-12-31T17:26:41.732Z,7.47
2022-12-31T17:32:47.244Z,6.18
2022-12-31T17:35:54.374Z,6.13
2022-12-31T17:38:56.029Z,7.13
2022-12-31T17:41:58.046Z,33.13
2022-12-31T17:45:02.893Z,18.05
2022-12-31T17:48:05.193Z,12.35
2022-12-31T17:51:06.799Z,12.52
2022-12-31T17:54:15.344Z,10.07
2022-12-31T17:57:25.676Z,8.05
2022-12-31T18:00:27.437Z,10.38
2022-12-31T18:03:28.933Z,9.38
2022-12-31T18:06:30.895Z,8.55
2022-12-31T18:09:32.373Z,7.28
2022-12-31T18:12:35.337Z,21.95
2022-12-31T18:15:36.822Z,10.50
2022-12-31T18:18:40.026Z,8.35
2022-12-31T18:21:43.405Z,8.95
2022-12-31T18:24:44.907Z,10.75
2022-12-31T18:27:46.526Z,10.10
2022-12-31T18:30:48.722Z,9.55
2022-12-31T18:33:51.881Z,10.05
2022-12-31T18:36:53.338Z,7.32
2022-12-31T18:39:54.809Z,7.40
2022-12-31T18:43:01.149Z,9.18
2022-12-31T18:46:06.200Z,6.78
2022-12-31T18:49:09.032Z,9.10
2022-12-31T18:52:18.637Z,8.18
2022-12-31T18:55:33.616Z,9.63
2022-12-31T18:58:35.170Z,12.30
2022-12-31T19:01:41.015Z,9.25
2022-12-31T19:04:42.613Z,11.65
2022-12-31T19:07:44.092Z,18.35
2022-12-31T19:10:47.180Z,17.05
2022-12-31T19:13:49.487Z,12.52
2022-12-31T19:16:52.601Z,10.63
2022-12-31T19:19:54.145Z,11.95
2022-12-31T19:22:56.052Z,7.82
2022-12-31T19:25:57.557Z,12.65
2022-12-31T19:28:59.058Z,8.45
2022-12-31T19:32:02.221Z,8.45
2022-12-31T19:35:04.098Z,7.88
2022-12-31T19:38:15.317Z,8.07
2022-12-31T19:41:19.573Z,9.75
2022-12-31T19:44:21.043Z,6.00
2022-12-31T19:47:22.565Z,7.35
2022-12-31T19:50:27.524Z,6.15
2022-12-31T19:53:29.101Z,8.85
2022-12-31T19:56:30.609Z,9.75
2022-12-31T19:59:32.053Z,16.60
2022-12-31T20:02:33.668Z,9.20
2022-12-31T20:05:35.288Z,10.85
2022-12-31T20:08:38.778Z,9.23
2022-12-31T20:11:40.430Z,11.20
2022-12-31T20:14:42.046Z,8.65
2022-12-31T20:17:43.776Z,8.57
2022-12-31T20:20:51.664Z,27.85
2022-12-31T20:23:56.827Z,7.97
2022-12-31T20:26:58.406Z,9.30
2022-12-31T20:29:59.904Z,7.60
2022-12-31T20:33:01.566Z,8.25
2022-12-31T20:36:08.333Z,7.53
2022-12-31T20:39:09.805Z,7.30
2022-12-31T20:42:11.338Z,7.82
2022-12-31T20:45:12.912Z,7.53
2022-12-31T20:48:14.425Z,10.45
2022-12-31T20:51:17.646Z,10.05
2022-12-31T20:54:19.139Z,8.90
2022-12-31T20:57:20.707Z,11.80
2022-12-31T21:00:22.228Z,9.43
2022-12-31T21:04:02.925Z,9.43
2022-12-31T21:06:45.277Z,12.17
2022-12-31T21:09:46.802Z,10.95
2022-12-31T21:12:53.179Z,11.98
2022-12-31T21:15:55.352Z,11.63
2022-12-31T21:21:58.286Z,8.35
2022-12-31T21:25:01.482Z,9.70
2022-12-31T21:28:03.026Z,11.02
2022-12-31T21:31:06.746Z,11.82
2022-12-31T21:34:09.469Z,10.35
2022-12-31T21:37:11.149Z,9.45
2022-12-31T21:40:12.652Z,11.35
2022-12-31T21:43:15.403Z,8.35
2022-12-31T21:46:16.944Z,10.15
2022-12-31T21:49:18.437Z,12.60
2022-12-31T21:52:33.872Z,9.05
2022-12-31T21:55:57.110Z,12.65
2022-12-31T21:59:17.386Z,8.63
2022-12-31T22:02:37.729Z,9.45
2022-12-31T22:05:46.797Z,12.43
2022-12-31T22:08:50.678Z,9.27
2022-12-31T22:11:52.160Z,6.90
2022-12-31T22:15:15.824Z,8.23
2022-12-31T22:18:16.644Z,6.23
2022-12-31T22:21:20.547Z,8.85
2022-12-31T22:24:22.274Z,7.03
2022-12-31T22:27:28.338Z,7.07
2022-12-31T22:30:31.044Z,8.85
2022-12-31T22:33:32.530Z,6.45
2022-12-31T22:36:34.011Z,13.82
2022-12-31T22:39:43.471Z,8.70
2022-12-31T22:42:46.099Z,9.60
2022-12-31T22:45:47.567Z,14.27
2022-12-31T22:48:50.106Z,10.05
2022-12-31T22:51:57.397Z,21.48
2022-12-31T22:55:00.415Z,14.00
2022-12-31T22:58:01.888Z,22.67
2022-12-31T23:01:09.027Z,64.70
2022-12-31T23:04:10.696Z,63.35
2022-12-31T23:07:12.223Z,81.25
2022-12-31T23:10:32.005Z,148.65
2022-12-31T23:13:56.478Z,101.82
2022-12-31T23:17:29.703Z,92.18
2022-12-31T23:20:50.908Z,92.25
2022-12-31T23:23:53.593Z,58.33
2022-12-31T23:26:56.873Z,48.35
2022-12-31T23:29:58.397Z,43.35
2022-12-31T23:33:00.018Z,35.05
2022-12-31T23:36:06.450Z,29.70
2022-12-31T23:39:08.162Z,33.58
2022-12-31T23:42:09.976Z,36.47
2022-12-31T23:45:11.488Z,26.65
2022-12-31T23:48:12.962Z,24.40
2022-12-31T23:51:14.494Z,18.67
2022-12-31T23:54:16.009Z,19.70
2022-12-31T23:57:17.530Z,18.73
